sensor_id;sensor_type;location;lat;lon;timestamp;pressure;altitude;pressure_sealevel;temperature;humidity
11830;BME280;5972;42.134;24.718;2022-08-04T00:00:05;99600.84;;;24.82;85.91
11830;BME280;5972;42.134;24.718;2022-08-04T00:02:43;99606.94;;;24.77;85.24
11830;BME280;5972;42.134;24.718;2022-08-04T00:05:22;99595.72;;;24.68;85.43
11830;BME280;5972;42.134;24.718;2022-08-04T00:07:57;99609.44;;;24.72;85.50
11830;BME280;5972;42.134;24.718;2022-08-04T00:10:27;99613.19;;;24.65;85.02
11830;BME280;5972;42.134;24.718;2022-08-04T00:12:59;99615.94;;;24.65;85.08
11830;BME280;5972;42.134;24.718;2022-08-04T00:15:26;99612.09;;;24.63;84.79
11830;BME280;5972;42.134;24.718;2022-08-04T00:18:00;99616.13;;;24.58;84.41
11830;BME280;5972;42.134;24.718;2022-08-04T00:20:30;99612.34;;;24.52;84.38
11830;BME280;5972;42.134;24.718;2022-08-04T00:22:59;99616.88;;;24.46;85.54
11830;BME280;5972;42.134;24.718;2022-08-04T00:25:26;99616.88;;;24.46;85.79
11830;BME280;5972;42.134;24.718;2022-08-04T00:27:53;99617.31;;;24.44;85.90
11830;BME280;5972;42.134;24.718;2022-08-04T00:30:20;99616.88;;;24.46;86.21
11830;BME280;5972;42.134;24.718;2022-08-04T00:32:48;99610.22;;;24.43;87.09
11830;BME280;5972;42.134;24.718;2022-08-04T00:35:16;99617.97;;;24.49;88.72
11830;BME280;5972;42.134;24.718;2022-08-04T00:37:44;99624.72;;;24.48;88.81
11830;BME280;5972;42.134;24.718;2022-08-04T00:40:23;99628.69;;;24.47;90.52
11830;BME280;5972;42.134;24.718;2022-08-04T00:42:58;99619.91;;;24.35;92.93
11830;BME280;5972;42.134;24.718;2022-08-04T00:45:51;99630.47;;;24.40;96.40
11830;BME280;5972;42.134;24.718;2022-08-04T00:48:36;99627.44;;;24.35;97.98
11830;BME280;5972;42.134;24.718;2022-08-04T00:51:21;99629.84;;;24.33;99.86
11830;BME280;5972;42.134;24.718;2022-08-04T00:54:07;99628.81;;;24.27;100.00
11830;BME280;5972;42.134;24.718;2022-08-04T00:56:48;99637.72;;;24.34;100.00
11830;BME280;5972;42.134;24.718;2022-08-04T00:59:35;99633.56;;;24.26;100.00
11830;BME280;5972;42.134;24.718;2022-08-04T01:02:12;99642.66;;;24.27;100.00
11830;BME280;5972;42.134;24.718;2022-08-04T01:04:49;99632.09;;;24.22;100.00
11830;BME280;5972;42.134;24.718;2022-08-04T01:07:51;99636.56;;;24.16;100.00
11830;BME280;5972;42.134;24.718;2022-08-04T01:10:31;99636.22;;;24.14;100.00
11830;BME280;5972;42.134;24.718;2022-08-04T01:13:27;99634.91;;;24.02;100.00
11830;BME280;5972;42.134;24.718;2022-08-04T01:16:01;99637.09;;;23.94;100.00
11830;BME280;5972;42.134;24.718;2022-08-04T01:18:34;99641.59;;;23.88;100.00
11830;BME280;5972;42.134;24.718;2022-08-04T01:24:17;99614.69;;;23.56;100.00
11830;BME280;5972;42.134;24.718;2022-08-04T01:26:52;99643.53;;;23.72;100.00
11830;BME280;5972;42.134;24.718;2022-08-04T01:29:24;99636.09;;;23.69;100.00
11830;BME280;5972;42.134;24.718;2022-08-04T01:31:59;99639.66;;;23.69;100.00
11830;BME280;5972;42.134;24.718;2022-08-04T01:34:30;99610.59;;;23.45;100.00
11830;BME280;5972;42.134;24.718;2022-08-04T01:37:01;99637.84;;;23.63;100.00
11830;BME280;5972;42.134;24.718;2022-08-04T01:39:34;99643.78;;;23.61;100.00
11830;BME280;5972;42.134;24.718;2022-08-04T01:42:09;99647.75;;;23.60;100.00
11830;BME280;5972;42.134;24.718;2022-08-04T01:44:39;99647.47;;;23.54;100.00
11830;BME280;5972;42.134;24.718;2022-08-04T01:47:07;99650.66;;;23.53;100.00
11830;BME280;5972;42.134;24.718;2022-08-04T01:49:36;99652.66;;;23.52;100.00
11830;BME280;5972;42.134;24.718;2022-08-04T01:52:05;99641.75;;;23.45;100.00
11830;BME280;5972;42.134;24.718;2022-08-04T01:54:37;99645.34;;;23.42;100.00
11830;BME280;5972;42.134;24.718;2022-08-04T01:57:05;99612.47;;;23.12;100.00
11830;BME280;5972;42.134;24.718;2022-08-04T01:59:33;99644.00;;;23.31;100.00
11830;BME280;5972;42.134;24.718;2022-08-04T02:02:03;99629.94;;;23.25;100.00
11830;BME280;5972;42.134;24.718;2022-08-04T02:04:31;99636.72;;;23.20;100.00
11830;BME280;5972;42.134;24.718;2022-08-04T02:07:07;99637.16;;;23.19;100.00
11830;BME280;5972;42.134;24.718;2022-08-04T02:09:42;99630.09;;;23.18;100.00
11830;BME280;5972;42.134;24.718;2022-08-04T02:12:26;99638.03;;;23.16;100.00
11830;BME280;5972;42.134;24.718;2022-08-04T02:15:01;99645.25;;;23.10;100.00
11830;BME280;5972;42.134;24.718;2022-08-04T02:17:31;99639.44;;;23.04;100.00
11830;BME280;5972;42.134;24.718;2022-08-04T02:20:07;99639.50;;;23.01;100.00
11830;BME280;5972;42.134;24.718;2022-08-04T02:22:39;99634.69;;;22.85;100.00
11830;BME280;5972;42.134;24.718;2022-08-04T02:25:09;99649.91;;;22.93;100.00
11830;BME280;5972;42.134;24.718;2022-08-04T02:27:52;99655.44;;;22.93;100.00
11830;BME280;5972;42.134;24.718;2022-08-04T02:30:20;99645.66;;;22.89;100.00
11830;BME280;5972;42.134;24.718;2022-08-04T02:32:51;99647.72;;;22.85;100.00
11830;BME280;5972;42.134;24.718;2022-08-04T02:35:25;99652.75;;;22.90;100.00
11830;BME280;5972;42.134;24.718;2022-08-04T02:38:02;99649.25;;;22.86;100.00
11830;BME280;5972;42.134;24.718;2022-08-04T02:40:30;99643.41;;;22.84;100.00
11830;BME280;5972;42.134;24.718;2022-08-04T02:43:03;99648.75;;;22.91;100.00
11830;BME280;5972;42.134;24.718;2022-08-04T02:45:31;99651.59;;;22.87;100.00
11830;BME280;5972;42.134;24.718;2022-08-04T02:48:03;99655.63;;;22.83;100.00
11830;BME280;5972;42.134;24.718;2022-08-04T02:50:33;99656.00;;;22.85;100.00
11830;BME280;5972;42.134;24.718;2022-08-04T02:53:02;99653.28;;;22.81;100.00
11830;BME280;5972;42.134;24.718;2022-08-04T02:55:32;99649.91;;;22.73;100.00
11830;BME280;5972;42.134;24.718;2022-08-04T02:58:01;99648.69;;;22.74;100.00
11830;BME280;5972;42.134;24.718;2022-08-04T03:00:29;99642.81;;;22.72;100.00
11830;BME280;5972;42.134;24.718;2022-08-04T03:03:05;99631.22;;;22.58;100.00
11830;BME280;5972;42.134;24.718;2022-08-04T03:05:48;99635.13;;;22.60;100.00
11830;BME280;5972;42.134;24.718;2022-08-04T03:08:43;99656.28;;;22.67;100.00
11830;BME280;5972;42.134;24.718;2022-08-04T03:11:27;99657.13;;;22.64;100.00
11830;BME280;5972;42.134;24.718;2022-08-04T03:14:20;99657.81;;;22.71;100.00
11830;BME280;5972;42.134;24.718;2022-08-04T03:17:06;99660.16;;;22.73;100.00
11830;BME280;5972;42.134;24.718;2022-08-04T03:19:57;99652.22;;;22.75;100.00
11830;BME280;5972;42.134;24.718;2022-08-04T03:22:56;99661.69;;;22.74;100.00
11830;BME280;5972;42.134;24.718;2022-08-04T03:25:58;99660.94;;;22.70;100.00
11830;BME280;5972;42.134;24.718;2022-08-04T03:29:14;99664.50;;;22.70;100.00
11830;BME280;5972;42.134;24.718;2022-08-04T03:32:19;99665.66;;;22.73;100.00
11830;BME280;5972;42.134;24.718;2022-08-04T03:35:07;99663.69;;;22.73;100.00
11830;BME280;5972;42.134;24.718;2022-08-04T03:38:02;99655.63;;;22.83;100.00
11830;BME280;5972;42.134;24.718;2022-08-04T03:40:44;99660.16;;;22.93;100.00
11830;BME280;5972;42.134;24.718;2022-08-04T03:43:51;99665.84;;;23.05;100.00
11830;BME280;5972;42.134;24.718;2022-08-04T03:46:52;99655.66;;;23.22;100.00
11830;BME280;5972;42.134;24.718;2022-08-04T03:52:44;99648.97;;;23.75;100.00
11830;BME280;5972;42.134;24.718;2022-08-04T03:55:47;99654.63;;;24.04;100.00
11830;BME280;5972;42.134;24.718;2022-08-04T04:01:36;99649.69;;;24.60;100.00
11830;BME280;5972;42.134;24.718;2022-08-04T04:04:25;99641.44;;;24.73;100.00
11830;BME280;5972;42.134;24.718;2022-08-04T04:13:18;99663.75;;;25.11;100.00
11830;BME280;5972;42.134;24.718;2022-08-04T04:16:08;99658.03;;;25.31;99.16
11830;BME280;5972;42.134;24.718;2022-08-04T04:18:51;99660.41;;;25.45;97.54
11830;BME280;5972;42.134;24.718;2022-08-04T04:21:30;99640.44;;;25.37;98.28
11830;BME280;5972;42.134;24.718;2022-08-04T04:24:32;99675.44;;;25.85;95.22
11830;BME280;5972;42.134;24.718;2022-08-04T04:27:08;99653.56;;;26.00;91.13
11830;BME280;5972;42.134;24.718;2022-08-04T04:30:03;99667.47;;;27.16;84.46
11830;BME280;5972;42.134;24.718;2022-08-04T04:35:29;99667.88;;;30.55;57.73
11830;BME280;5972;42.134;24.718;2022-08-04T04:40:57;99671.63;;;33.61;44.36
11830;BME280;5972;42.134;24.718;2022-08-04T04:46:33;99685.28;;;36.07;37.25
11830;BME280;5972;42.134;24.718;2022-08-04T04:49:10;99690.53;;;36.72;35.70
11830;BME280;5972;42.134;24.718;2022-08-04T04:51:42;99681.09;;;37.45;34.35
11830;BME280;5972;42.134;24.718;2022-08-04T04:54:17;99683.53;;;38.20;32.77
11830;BME280;5972;42.134;24.718;2022-08-04T04:56:53;99690.75;;;38.64;32.12
11830;BME280;5972;42.134;24.718;2022-08-04T04:59:31;99684.00;;;39.42;30.73
11830;BME280;5972;42.134;24.718;2022-08-04T05:02:36;99687.72;;;39.82;29.33
11830;BME280;5972;42.134;24.718;2022-08-04T05:05:28;99685.19;;;40.23;29.07
11830;BME280;5972;42.134;24.718;2022-08-04T05:11:27;99687.06;;;40.94;27.64
11830;BME280;5972;42.134;24.718;2022-08-04T05:14:02;99685.06;;;41.36;27.41
11830;BME280;5972;42.134;24.718;2022-08-04T05:16:35;99696.25;;;41.97;26.63
11830;BME280;5972;42.134;24.718;2022-08-04T05:19:16;99694.88;;;42.18;25.53
11830;BME280;5972;42.134;24.718;2022-08-04T05:21:47;99707.19;;;41.92;26.15
11830;BME280;5972;42.134;24.718;2022-08-04T05:24:17;99697.00;;;41.35;26.64
11830;BME280;5972;42.134;24.718;2022-08-04T05:26:47;99709.94;;;40.62;26.92
11830;BME280;5972;42.134;24.718;2022-08-04T05:29:25;99713.44;;;39.52;28.40
11830;BME280;5972;42.134;24.718;2022-08-04T05:31:56;99703.19;;;37.41;30.92
11830;BME280;5972;42.134;24.718;2022-08-04T05:34:27;99711.22;;;35.77;33.39
11830;BME280;5972;42.134;24.718;2022-08-04T05:36:57;99703.81;;;34.28;36.31
11830;BME280;5972;42.134;24.718;2022-08-04T05:39:27;99714.56;;;33.15;38.30
11830;BME280;5972;42.134;24.718;2022-08-04T05:41:55;99692.28;;;31.75;41.96
11830;BME280;5972;42.134;24.718;2022-08-04T05:44:25;99709.44;;;31.01;45.11
11830;BME280;5972;42.134;24.718;2022-08-04T05:46:56;99715.84;;;30.53;47.38
11830;BME280;5972;42.134;24.718;2022-08-04T05:49:29;99692.47;;;29.67;51.66
11830;BME280;5972;42.134;24.718;2022-08-04T05:51:59;99708.81;;;29.23;55.13
11830;BME280;5972;42.134;24.718;2022-08-04T05:54:27;99712.84;;;29.13;56.19
11830;BME280;5972;42.134;24.718;2022-08-04T05:56:56;99704.75;;;30.83;50.79
11830;BME280;5972;42.134;24.718;2022-08-04T05:59:24;99711.91;;;33.83;41.20
11830;BME280;5972;42.134;24.718;2022-08-04T06:01:56;99703.72;;;36.08;35.63
11830;BME280;5972;42.134;24.718;2022-08-04T06:04:27;99708.44;;;37.67;32.49
11830;BME280;5972;42.134;24.718;2022-08-04T06:06:56;99694.75;;;39.12;30.53
11830;BME280;5972;42.134;24.718;2022-08-04T06:09:23;99705.66;;;40.69;28.07
11830;BME280;5972;42.134;24.718;2022-08-04T06:11:51;99703.88;;;41.60;27.14
11830;BME280;5972;42.134;24.718;2022-08-04T06:14:20;99707.25;;;42.57;25.86
11830;BME280;5972;42.134;24.718;2022-08-04T06:16:49;99703.78;;;42.79;25.30
11830;BME280;5972;42.134;24.718;2022-08-04T06:19:19;99699.44;;;42.21;26.12
11830;BME280;5972;42.134;24.718;2022-08-04T06:21:49;99704.03;;;40.47;27.77
11830;BME280;5972;42.134;24.718;2022-08-04T06:24:18;99705.06;;;39.09;29.27
11830;BME280;5972;42.134;24.718;2022-08-04T06:26:49;99699.91;;;37.73;31.21
11830;BME280;5972;42.134;24.718;2022-08-04T06:29:17;99670.88;;;36.44;32.97
11830;BME280;5972;42.134;24.718;2022-08-04T06:31:50;99694.50;;;36.07;34.08
11830;BME280;5972;42.134;24.718;2022-08-04T06:34:26;99689.19;;;35.81;34.54
11830;BME280;5972;42.134;24.718;2022-08-04T06:36:53;99667.16;;;35.30;35.36
11830;BME280;5972;42.134;24.718;2022-08-04T06:39:21;99687.09;;;35.21;35.40
11830;BME280;5972;42.134;24.718;2022-08-04T06:41:51;99687.22;;;34.84;37.03
11830;BME280;5972;42.134;24.718;2022-08-04T06:44:19;99674.44;;;34.83;36.63
11830;BME280;5972;42.134;24.718;2022-08-04T06:46:48;99687.91;;;34.68;35.57
11830;BME280;5972;42.134;24.718;2022-08-04T06:49:16;99675.63;;;34.59;35.43
11830;BME280;5972;42.134;24.718;2022-08-04T06:51:45;99682.69;;;34.38;35.39
11830;BME280;5972;42.134;24.718;2022-08-04T06:54:13;99658.63;;;34.32;36.05
11830;BME280;5972;42.134;24.718;2022-08-04T06:56:42;99677.84;;;34.50;35.41
11830;BME280;5972;42.134;24.718;2022-08-04T06:59:10;99678.03;;;34.30;35.42
11830;BME280;5972;42.134;24.718;2022-08-04T07:01:38;99679.13;;;34.06;36.16
11830;BME280;5972;42.134;24.718;2022-08-04T07:04:06;99660.44;;;33.92;35.41
11830;BME280;5972;42.134;24.718;2022-08-04T07:06:33;99672.69;;;33.95;35.99
11830;BME280;5972;42.134;24.718;2022-08-04T07:09:01;99676.38;;;33.75;36.38
11830;BME280;5972;42.134;24.718;2022-08-04T07:11:29;99685.78;;;33.72;36.92
11830;BME280;5972;42.134;24.718;2022-08-04T07:13:58;99691.94;;;33.50;37.36
11830;BME280;5972;42.134;24.718;2022-08-04T07:16:27;99667.59;;;33.10;37.81
11830;BME280;5972;42.134;24.718;2022-08-04T07:18:54;99688.97;;;33.08;38.25
11830;BME280;5972;42.134;24.718;2022-08-04T07:21:22;99682.41;;;33.16;38.55
11830;BME280;5972;42.134;24.718;2022-08-04T07:23:49;99684.72;;;33.38;37.73
11830;BME280;5972;42.134;24.718;2022-08-04T07:26:17;99685.69;;;33.35;37.72
11830;BME280;5972;42.134;24.718;2022-08-04T07:28:45;99676.75;;;33.31;37.34
11830;BME280;5972;42.134;24.718;2022-08-04T07:31:14;99680.22;;;33.20;37.84
11830;BME280;5972;42.134;24.718;2022-08-04T07:33:43;99681.34;;;33.34;38.10
11830;BME280;5972;42.134;24.718;2022-08-04T07:36:11;99678.97;;;33.53;37.40
11830;BME280;5972;42.134;24.718;2022-08-04T07:38:39;99676.50;;;33.60;37.36
11830;BME280;5972;42.134;24.718;2022-08-04T07:41:07;99684.97;;;33.40;37.46
11830;BME280;5972;42.134;24.718;2022-08-04T07:43:36;99673.22;;;33.36;38.04
11830;BME280;5972;42.134;24.718;2022-08-04T07:46:04;99662.34;;;33.44;37.51
11830;BME280;5972;42.134;24.718;2022-08-04T07:48:30;99675.13;;;33.50;37.71
11830;BME280;5972;42.134;24.718;2022-08-04T07:50:58;99673.47;;;33.64;37.46
11830;BME280;5972;42.134;24.718;2022-08-04T07:53:26;99670.81;;;33.80;37.14
11830;BME280;5972;42.134;24.718;2022-08-04T07:55:53;99675.16;;;33.81;36.65
11830;BME280;5972;42.134;24.718;2022-08-04T07:58:21;99670.88;;;33.92;36.20
11830;BME280;5972;42.134;24.718;2022-08-04T08:00:50;99666.28;;;33.94;35.83
11830;BME280;5972;42.134;24.718;2022-08-04T08:03:18;99659.19;;;33.67;36.93
11830;BME280;5972;42.134;24.718;2022-08-04T08:05:45;99669.50;;;33.76;37.08
11830;BME280;5972;42.134;24.718;2022-08-04T08:08:12;99655.22;;;33.79;35.55
11830;BME280;5972;42.134;24.718;2022-08-04T08:10:45;99652.25;;;33.94;35.54
11830;BME280;5972;42.134;24.718;2022-08-04T08:13:12;99654.50;;;33.85;35.53
11830;BME280;5972;42.134;24.718;2022-08-04T08:15:39;99639.09;;;33.69;35.99
11830;BME280;5972;42.134;24.718;2022-08-04T08:18:08;99640.78;;;33.92;35.91
11830;BME280;5972;42.134;24.718;2022-08-04T08:20:35;99639.38;;;34.19;35.18
11830;BME280;5972;42.134;24.718;2022-08-04T08:23:02;99642.06;;;34.39;35.28
11830;BME280;5972;42.134;24.718;2022-08-04T08:25:30;99644.41;;;34.52;35.32
11830;BME280;5972;42.134;24.718;2022-08-04T08:27:58;99643.44;;;34.60;34.54
11830;BME280;5972;42.134;24.718;2022-08-04T08:30:25;99640.34;;;34.58;34.79
11830;BME280;5972;42.134;24.718;2022-08-04T08:32:52;99641.59;;;34.52;34.00
11830;BME280;5972;42.134;24.718;2022-08-04T08:35:23;99643.03;;;34.31;34.72
11830;BME280;5972;42.134;24.718;2022-08-04T08:37:55;99642.38;;;34.58;34.38
11830;BME280;5972;42.134;24.718;2022-08-04T08:40:29;99638.69;;;34.30;33.84
11830;BME280;5972;42.134;24.718;2022-08-04T08:43:29;99639.81;;;34.06;33.97
11830;BME280;5972;42.134;24.718;2022-08-04T08:49:39;99630.75;;;34.22;34.09
11830;BME280;5972;42.134;24.718;2022-08-04T08:52:31;99627.53;;;34.46;32.89
11830;BME280;5972;42.134;24.718;2022-08-04T08:55:16;99626.38;;;34.81;31.95
11830;BME280;5972;42.134;24.718;2022-08-04T09:00:44;99617.72;;;35.07;31.67
11830;BME280;5972;42.134;24.718;2022-08-04T09:03:59;99622.84;;;35.02;31.85
11830;BME280;5972;42.134;24.718;2022-08-04T09:06:42;99627.41;;;34.83;31.56
11830;BME280;5972;42.134;24.718;2022-08-04T09:09:32;99615.78;;;34.42;32.11
11830;BME280;5972;42.134;24.718;2022-08-04T09:12:08;99622.09;;;34.26;30.15
11830;BME280;5972;42.134;24.718;2022-08-04T09:14:41;99613.97;;;34.39;29.47
11830;BME280;5972;42.134;24.718;2022-08-04T09:17:19;99604.56;;;34.48;29.40
11830;BME280;5972;42.134;24.718;2022-08-04T09:19:52;99605.16;;;34.74;30.17
11830;BME280;5972;42.134;24.718;2022-08-04T09:22:27;99601.88;;;34.92;29.53
11830;BME280;5972;42.134;24.718;2022-08-04T09:25:01;99599.34;;;35.28;28.54
11830;BME280;5972;42.134;24.718;2022-08-04T09:27:34;99603.97;;;35.25;28.91
11830;BME280;5972;42.134;24.718;2022-08-04T09:30:04;99592.94;;;35.05;28.86
11830;BME280;5972;42.134;24.718;2022-08-04T09:32:39;99593.19;;;35.07;28.73
11830;BME280;5972;42.134;24.718;2022-08-04T09:35:20;99595.50;;;34.97;29.32
11830;BME280;5972;42.134;24.718;2022-08-04T09:38:09;99583.22;;;35.17;29.06
11830;BME280;5972;42.134;24.718;2022-08-04T09:40:47;99594.25;;;35.26;28.04
11830;BME280;5972;42.134;24.718;2022-08-04T09:43:31;99588.59;;;35.04;27.61
11830;BME280;5972;42.134;24.718;2022-08-04T09:46:07;99557.16;;;35.22;28.29
11830;BME280;5972;42.134;24.718;2022-08-04T09:48:42;99577.38;;;35.37;28.00
11830;BME280;5972;42.134;24.718;2022-08-04T09:51:24;99590.88;;;35.78;28.12
11830;BME280;5972;42.134;24.718;2022-08-04T09:54:04;99583.88;;;36.12;27.05
11830;BME280;5972;42.134;24.718;2022-08-04T09:56:40;99591.47;;;36.34;26.36
11830;BME280;5972;42.134;24.718;2022-08-04T09:59:18;99579.59;;;36.52;25.76
11830;BME280;5972;42.134;24.718;2022-08-04T10:01:51;99578.22;;;36.76;25.66
11830;BME280;5972;42.134;24.718;2022-08-04T10:04:19;99588.53;;;37.03;25.00
11830;BME280;5972;42.134;24.718;2022-08-04T10:07:07;99588.69;;;37.22;24.87
11830;BME280;5972;42.134;24.718;2022-08-04T10:09:49;99585.41;;;37.06;25.30
11830;BME280;5972;42.134;24.718;2022-08-04T10:12:29;99566.91;;;36.29;25.22
11830;BME280;5972;42.134;24.718;2022-08-04T10:15:05;99571.69;;;35.82;25.67
11830;BME280;5972;42.134;24.718;2022-08-04T10:17:44;99571.41;;;35.91;26.14
11830;BME280;5972;42.134;24.718;2022-08-04T10:20:23;99562.50;;;35.76;27.27
11830;BME280;5972;42.134;24.718;2022-08-04T10:23:03;99568.38;;;35.50;27.63
11830;BME280;5972;42.134;24.718;2022-08-04T10:25:41;99546.09;;;35.63;27.67
11830;BME280;5972;42.134;24.718;2022-08-04T10:28:15;99562.88;;;36.13;26.58
11830;BME280;5972;42.134;24.718;2022-08-04T10:30:47;99561.47;;;36.42;26.25
11830;BME280;5972;42.134;24.718;2022-08-04T10:33:22;99556.22;;;36.69;25.53
11830;BME280;5972;42.134;24.718;2022-08-04T10:35:53;99534.47;;;36.63;25.50
11830;BME280;5972;42.134;24.718;2022-08-04T10:38:25;99553.19;;;36.96;25.61
11830;BME280;5972;42.134;24.718;2022-08-04T10:40:59;99547.38;;;37.19;25.51
11830;BME280;5972;42.134;24.718;2022-08-04T10:43:38;99535.38;;;37.13;24.80
11830;BME280;5972;42.134;24.718;2022-08-04T10:46:09;99527.38;;;36.87;24.74
11830;BME280;5972;42.134;24.718;2022-08-04T10:48:43;99517.13;;;36.89;25.23
11830;BME280;5972;42.134;24.718;2022-08-04T10:51:22;99525.94;;;37.10;24.81
11830;BME280;5972;42.134;24.718;2022-08-04T10:53:57;99534.56;;;36.88;24.71
11830;BME280;5972;42.134;24.718;2022-08-04T10:56:31;99524.13;;;37.07;25.09
11830;BME280;5972;42.134;24.718;2022-08-04T10:59:03;99530.88;;;36.98;24.96
11830;BME280;5972;42.134;24.718;2022-08-04T11:01:35;99524.88;;;37.13;24.50
11830;BME280;5972;42.134;24.718;2022-08-04T11:04:09;99516.47;;;36.72;23.79
11830;BME280;5972;42.134;24.718;2022-08-04T11:06:38;99524.78;;;35.96;24.87
11830;BME280;5972;42.134;24.718;2022-08-04T11:09:06;99523.00;;;35.98;24.55
11830;BME280;5972;42.134;24.718;2022-08-04T11:11:38;99523.59;;;35.63;25.63
11830;BME280;5972;42.134;24.718;2022-08-04T11:14:11;99513.81;;;35.87;24.86
11830;BME280;5972;42.134;24.718;2022-08-04T11:16:43;99514.53;;;35.98;24.52
11830;BME280;5972;42.134;24.718;2022-08-04T11:19:22;99502.63;;;36.33;25.01
11830;BME280;5972;42.134;24.718;2022-08-04T11:21:56;99499.69;;;36.50;24.66
11830;BME280;5972;42.134;24.718;2022-08-04T11:24:29;99507.47;;;36.74;24.42
11830;BME280;5972;42.134;24.718;2022-08-04T11:27:04;99506.31;;;36.52;24.26
11830;BME280;5972;42.134;24.718;2022-08-04T11:29:40;99503.47;;;36.58;24.54
11830;BME280;5972;42.134;24.718;2022-08-04T11:32:16;99486.34;;;36.86;24.60
11830;BME280;5972;42.134;24.718;2022-08-04T11:34:48;99484.22;;;36.97;24.56
11830;BME280;5972;42.134;24.718;2022-08-04T11:37:22;99480.09;;;36.98;23.91
11830;BME280;5972;42.134;24.718;2022-08-04T11:39:58;99487.50;;;37.01;23.65
11830;BME280;5972;42.134;24.718;2022-08-04T11:42:28;99480.97;;;36.88;23.76
11830;BME280;5972;42.134;24.718;2022-08-04T11:45:00;99484.44;;;36.70;23.73
11830;BME280;5972;42.134;24.718;2022-08-04T11:47:35;99475.03;;;36.91;24.19
11830;BME280;5972;42.134;24.718;2022-08-04T11:50:09;99480.00;;;36.80;24.19
11830;BME280;5972;42.134;24.718;2022-08-04T11:52:39;99467.81;;;36.66;24.06
11830;BME280;5972;42.134;24.718;2022-08-04T11:55:09;99471.75;;;36.46;24.38
11830;BME280;5972;42.134;24.718;2022-08-04T11:57:38;99465.31;;;36.16;24.97
11830;BME280;5972;42.134;24.718;2022-08-04T12:00:10;99458.56;;;36.30;24.81
11830;BME280;5972;42.134;24.718;2022-08-04T12:03:00;99441.09;;;36.37;24.46
11830;BME280;5972;42.134;24.718;2022-08-04T12:05:32;99458.28;;;36.69;24.01
11830;BME280;5972;42.134;24.718;2022-08-04T12:08:10;99443.16;;;36.72;24.48
11830;BME280;5972;42.134;24.718;2022-08-04T12:10:48;99450.94;;;36.90;24.30
11830;BME280;5972;42.134;24.718;2022-08-04T12:13:25;99442.19;;;36.64;24.10
11830;BME280;5972;42.134;24.718;2022-08-04T12:16:00;99443.63;;;36.76;24.06
11830;BME280;5972;42.134;24.718;2022-08-04T12:18:33;99443.91;;;37.02;23.94
11830;BME280;5972;42.134;24.718;2022-08-04T12:21:07;99440.72;;;37.17;23.79
11830;BME280;5972;42.134;24.718;2022-08-04T12:23:39;99441.06;;;37.32;23.81
11830;BME280;5972;42.134;24.718;2022-08-04T12:26:14;99440.22;;;37.37;23.25
11830;BME280;5972;42.134;24.718;2022-08-04T12:28:46;99424.53;;;37.42;23.08
11830;BME280;5972;42.134;24.718;2022-08-04T12:31:19;99431.75;;;37.62;22.60
11830;BME280;5972;42.134;24.718;2022-08-04T12:33:51;99439.72;;;37.82;22.45
11830;BME280;5972;42.134;24.718;2022-08-04T12:36:22;99431.31;;;37.76;22.14
11830;BME280;5972;42.134;24.718;2022-08-04T12:38:58;99420.66;;;37.45;22.24
11830;BME280;5972;42.134;24.718;2022-08-04T12:41:32;99420.72;;;37.15;22.62
11830;BME280;5972;42.134;24.718;2022-08-04T12:44:06;99412.97;;;36.91;23.35
11830;BME280;5972;42.134;24.718;2022-08-04T12:46:37;99411.75;;;36.87;23.86
11830;BME280;5972;42.134;24.718;2022-08-04T12:49:05;99409.19;;;37.13;23.83
11830;BME280;5972;42.134;24.718;2022-08-04T12:51:36;99412.72;;;37.19;23.63
11830;BME280;5972;42.134;24.718;2022-08-04T12:54:06;99411.00;;;37.35;23.37
11830;BME280;5972;42.134;24.718;2022-08-04T12:56:34;99410.72;;;37.14;23.13
11830;BME280;5972;42.134;24.718;2022-08-04T12:59:03;99405.47;;;37.24;23.33
11830;BME280;5972;42.134;24.718;2022-08-04T13:01:31;99403.22;;;37.22;23.45
11830;BME280;5972;42.134;24.718;2022-08-04T13:04:02;99402.56;;;37.11;23.23
11830;BME280;5972;42.134;24.718;2022-08-04T13:06:33;99413.84;;;37.11;23.01
11830;BME280;5972;42.134;24.718;2022-08-04T13:09:03;99400.16;;;36.90;23.67
11830;BME280;5972;42.134;24.718;2022-08-04T13:11:34;99385.97;;;36.77;23.77
11830;BME280;5972;42.134;24.718;2022-08-04T13:14:03;99387.75;;;36.75;23.77
11830;BME280;5972;42.134;24.718;2022-08-04T13:16:32;99396.81;;;36.92;23.53
11830;BME280;5972;42.134;24.718;2022-08-04T13:19:00;99396.56;;;36.90;23.86
11830;BME280;5972;42.134;24.718;2022-08-04T13:21:29;99400.44;;;37.17;24.10
11830;BME280;5972;42.134;24.718;2022-08-04T13:23:57;99391.88;;;37.46;23.86
11830;BME280;5972;42.134;24.718;2022-08-04T13:26:28;99394.75;;;37.41;23.37
11830;BME280;5972;42.134;24.718;2022-08-04T13:28:59;99402.63;;;37.48;23.80
11830;BME280;5972;42.134;24.718;2022-08-04T13:31:27;99393.47;;;37.42;23.49
11830;BME280;5972;42.134;24.718;2022-08-04T13:34:03;99389.41;;;37.62;23.49
11830;BME280;5972;42.134;24.718;2022-08-04T13:36:33;99394.63;;;37.09;23.74
11830;BME280;5972;42.134;24.718;2022-08-04T13:39:04;99393.28;;;37.34;24.12
11830;BME280;5972;42.134;24.718;2022-08-04T13:41:34;99362.41;;;36.99;24.52
11830;BME280;5972;42.134;24.718;2022-08-04T13:44:04;99391.00;;;37.08;23.90
11830;BME280;5972;42.134;24.718;2022-08-04T13:46:38;99388.56;;;36.99;24.39
11830;BME280;5972;42.134;24.718;2022-08-04T13:49:09;99386.00;;;36.72;24.74
11830;BME280;5972;42.134;24.718;2022-08-04T13:51:38;99376.94;;;36.19;24.51
11830;BME280;5972;42.134;24.718;2022-08-04T13:54:06;99393.31;;;36.20;24.55
11830;BME280;5972;42.134;24.718;2022-08-04T13:56:37;99385.78;;;36.34;24.35
11830;BME280;5972;42.134;24.718;2022-08-04T13:59:09;99383.41;;;36.44;24.44
11830;BME280;5972;42.134;24.718;2022-08-04T14:01:42;99375.81;;;36.33;24.58
11830;BME280;5972;42.134;24.718;2022-08-04T14:04:16;99387.69;;;36.20;25.17
11830;BME280;5972;42.134;24.718;2022-08-04T14:06:49;99378.63;;;36.33;25.00
11830;BME280;5972;42.134;24.718;2022-08-04T14:09:18;99367.50;;;36.16;24.15